createdAt,value
2018-11-04T00:01:16.037Z,58.43
2018-11-04T00:03:45.021Z,54.07
2018-11-04T00:06:13.380Z,52.80
2018-11-04T00:08:41.732Z,56.40
2018-11-04T00:11:11.052Z,56.40
2018-11-04T00:13:39.467Z,55.23
2018-11-04T00:16:08.250Z,54.20
2018-11-04T00:18:38.713Z,54.93
2018-11-04T00:21:07.241Z,48.80
2018-11-04T00:23:35.931Z,59.27
2018-11-04T00:26:04.362Z,59.80
2018-11-04T00:28:34.709Z,57.07
2018-11-04T00:31:02.970Z,51.57
2018-11-04T00:33:32.962Z,48.30
2018-11-04T00:36:01.474Z,51.23
2018-11-04T00:38:29.849Z,46.77
2018-11-04T00:40:58.375Z,46.53
2018-11-04T00:43:27.518Z,42.90
2018-11-04T00:45:55.674Z,42.17
2018-11-04T00:48:25.282Z,44.70
2018-11-04T00:50:53.515Z,46.53
2018-11-04T00:53:22.335Z,46.93
2018-11-04T00:55:55.349Z,46.80
2018-11-04T00:58:24.676Z,50.83
2018-11-04T01:00:53.259Z,45.20
2018-11-04T01:03:23.266Z,44.27
2018-11-04T01:05:51.641Z,35.93
2018-11-04T01:08:20.549Z,58.73
2018-11-04T01:10:48.644Z,51.40
2018-11-04T01:13:17.000Z,43.13
2018-11-04T01:15:45.329Z,49.90
2018-11-04T01:18:13.664Z,52.73
2018-11-04T01:20:41.755Z,47.03
2018-11-04T01:23:10.334Z,46.40
2018-11-04T01:25:38.674Z,51.13
2018-11-04T01:28:09.892Z,55.03
2018-11-04T01:30:38.331Z,50.07
2018-11-04T01:33:10.047Z,47.90
2018-11-04T01:35:38.442Z,46.03
2018-11-04T01:38:11.755Z,43.50
2018-11-04T01:40:40.331Z,50.33
2018-11-04T01:43:09.347Z,45.20
2018-11-04T01:45:39.148Z,52.03
2018-11-04T01:48:07.882Z,47.90
2018-11-04T01:50:36.696Z,53.60
2018-11-04T01:53:05.235Z,60.20
2018-11-04T01:55:33.538Z,57.53
2018-11-04T01:58:01.692Z,51.10
2018-11-04T02:00:29.996Z,59.27
2018-11-04T02:02:58.345Z,54.83
2018-11-04T02:05:26.447Z,49.03
2018-11-04T02:07:54.785Z,46.83
2018-11-04T02:10:23.010Z,56.77
2018-11-04T02:12:51.251Z,54.17
2018-11-04T02:15:19.565Z,55.13
2018-11-04T02:17:47.767Z,47.93
2018-11-04T02:20:15.913Z,63.60
2018-11-04T02:22:44.274Z,57.47
2018-11-04T02:25:13.822Z,53.93
2018-11-04T02:27:42.860Z,54.70
2018-11-04T02:30:13.572Z,50.23
2018-11-04T02:32:42.367Z,64.53
2018-11-04T02:35:10.791Z,52.53
2018-11-04T02:37:39.342Z,45.83
2018-11-04T02:40:07.498Z,50.77
2018-11-04T02:42:35.767Z,47.00
2018-11-04T02:45:04.136Z,53.43
2018-11-04T02:47:32.289Z,48.63
2018-11-04T02:50:01.184Z,50.43
2018-11-04T02:52:29.318Z,59.73
2018-11-04T02:54:57.418Z,50.57
2018-11-04T02:57:25.422Z,44.40
2018-11-04T02:59:53.476Z,43.60
2018-11-04T03:02:21.581Z,50.47
2018-11-04T03:04:49.717Z,51.40
2018-11-04T03:07:18.063Z,51.63
2018-11-04T03:09:46.113Z,45.60
2018-11-04T03:12:14.170Z,56.27
2018-11-04T03:14:42.348Z,53.43
2018-11-04T03:17:10.477Z,51.13
2018-11-04T03:19:38.762Z,56.23
2018-11-04T03:22:07.573Z,46.03
2018-11-04T03:24:35.792Z,52.43
2018-11-04T03:27:03.998Z,53.17
2018-11-04T03:29:32.025Z,55.97
2018-11-04T03:32:00.308Z,49.70
2018-11-04T03:34:28.417Z,56.43
2018-11-04T03:36:56.463Z,52.33
2018-11-04T03:39:24.581Z,46.27
2018-11-04T03:41:52.756Z,51.20
2018-11-04T03:44:20.789Z,52.90
2018-11-04T03:46:48.828Z,56.93
2018-11-04T03:49:16.908Z,54.57
2018-11-04T03:51:45.011Z,52.40
2018-11-04T03:54:13.322Z,49.43
2018-11-04T03:56:41.449Z,46.07
2018-11-04T03:59:09.568Z,50.97
2018-11-04T04:01:37.788Z,51.60
2018-11-04T04:04:06.156Z,51.40
2018-11-04T04:06:34.287Z,54.50
2018-11-04T04:09:02.299Z,54.87
2018-11-04T04:11:30.490Z,52.63
2018-11-04T04:13:58.749Z,56.23
2018-11-04T04:16:29.034Z,45.33
2018-11-04T04:18:57.042Z,53.27
2018-11-04T04:21:25.022Z,50.53
2018-11-04T04:23:53.158Z,55.77
2018-11-04T04:26:21.173Z,49.90
2018-11-04T04:28:49.330Z,49.70
2018-11-04T04:31:17.408Z,54.37
2018-11-04T04:33:45.530Z,50.77
2018-11-04T04:36:13.594Z,52.20
2018-11-04T04:38:41.781Z,45.97
2018-11-04T04:41:09.838Z,44.80
2018-11-04T04:43:37.971Z,43.20
2018-11-04T04:46:06.370Z,49.90
2018-11-04T04:48:34.499Z,42.80
2018-11-04T04:51:02.548Z,51.20
2018-11-04T04:53:30.607Z,49.83
2018-11-04T04:55:58.756Z,43.90
2018-11-04T04:58:26.951Z,44.00
2018-11-04T05:00:55.104Z,46.30
2018-11-04T05:03:23.721Z,43.40
2018-11-04T05:05:51.935Z,43.00
2018-11-04T05:08:20.094Z,50.27
2018-11-04T05:10:48.793Z,46.07
2018-11-04T05:13:16.897Z,58.90
2018-11-04T05:15:44.962Z,50.43
2018-11-04T05:18:13.017Z,47.17
2018-11-04T05:20:41.329Z,47.43
2018-11-04T05:23:09.451Z,46.63
2018-11-04T05:25:37.554Z,43.80
2018-11-04T05:28:05.804Z,54.67
2018-11-04T05:30:33.851Z,42.07
2018-11-04T05:33:02.058Z,49.20
2018-11-04T05:35:30.130Z,43.13
2018-11-04T05:37:58.386Z,55.93
2018-11-04T05:40:26.526Z,43.07
2018-11-04T05:42:54.540Z,55.73
2018-11-04T05:45:22.594Z,49.00
2018-11-04T05:47:50.648Z,49.30
2018-11-04T05:50:18.655Z,44.00
2018-11-04T05:52:46.747Z,44.70
2018-11-04T05:55:14.897Z,48.17
2018-11-04T05:57:43.020Z,52.27
2018-11-04T06:00:11.657Z,52.67
2018-11-04T06:02:44.123Z,49.00
2018-11-04T06:05:12.179Z,53.50
2018-11-04T06:07:40.539Z,51.43
2018-11-04T06:10:08.588Z,44.03
2018-11-04T06:12:37.247Z,41.37
2018-11-04T06:15:06.022Z,53.37
2018-11-04T06:17:34.145Z,47.40
2018-11-04T06:20:02.254Z,48.47
2018-11-04T06:22:30.360Z,46.00
2018-11-04T06:24:58.610Z,44.53
2018-11-04T06:27:26.683Z,43.83
2018-11-04T06:29:54.694Z,52.37
2018-11-04T06:32:22.818Z,51.23
2018-11-04T06:34:50.811Z,54.33
2018-11-04T06:37:18.917Z,51.50
2018-11-04T06:39:46.982Z,53.37
2018-11-04T06:42:14.978Z,58.17
2018-11-04T06:44:43.026Z,49.13
2018-11-04T06:47:11.307Z,48.00
2018-11-04T06:49:39.677Z,57.87
2018-11-04T06:52:07.746Z,52.17
2018-11-04T06:54:36.009Z,47.73
2018-11-04T06:57:04.242Z,49.70
2018-11-04T06:59:32.398Z,50.93
2018-11-04T07:02:00.712Z,41.07
2018-11-04T07:04:29.723Z,47.97
2018-11-04T07:06:58.580Z,47.00
2018-11-04T07:09:26.706Z,45.37
2018-11-04T07:11:54.801Z,47.23
2018-11-04T07:14:22.897Z,46.37
2018-11-04T07:16:51.470Z,53.63
2018-11-04T07:19:19.558Z,47.30
2018-11-04T07:21:47.897Z,44.93
2018-11-04T07:24:16.546Z,50.63
2018-11-04T07:26:44.637Z,43.93
2018-11-04T07:29:13.086Z,52.57
2018-11-04T07:31:41.298Z,43.30
2018-11-04T07:34:09.611Z,53.87
2018-11-04T07:36:37.751Z,44.67
2018-11-04T07:39:07.687Z,56.17
2018-11-04T07:41:35.910Z,52.17
2018-11-04T07:44:04.126Z,66.77
2018-11-04T07:46:33.293Z,46.87
2018-11-04T07:49:01.759Z,49.50
2018-11-04T07:51:31.122Z,50.67
2018-11-04T07:54:01.245Z,46.00
2018-11-04T07:56:29.762Z,45.90
2018-11-04T07:58:57.937Z,50.97
2018-11-04T08:01:32.488Z,49.57
2018-11-04T08:04:03.296Z,51.13
2018-11-04T08:06:31.602Z,46.37
2018-11-04T08:09:01.188Z,40.07
2018-11-04T08:11:29.726Z,42.87
2018-11-04T08:13:57.865Z,43.30
2018-11-04T08:16:26.035Z,50.97
2018-11-04T08:18:55.256Z,45.47
2018-11-04T08:21:23.638Z,56.70
2018-11-04T08:23:51.926Z,46.63
2018-11-04T08:26:20.342Z,46.57
2018-11-04T08:28:48.783Z,54.50
2018-11-04T08:31:16.881Z,45.43
2018-11-04T08:33:45.219Z,48.10
2018-11-04T08:36:13.614Z,61.10
2018-11-04T08:38:42.636Z,58.00
2018-11-04T08:41:10.958Z,43.73
2018-11-04T08:43:39.292Z,47.10
2018-11-04T08:46:08.306Z,42.17
2018-11-04T08:48:37.021Z,49.60
2018-11-04T08:51:05.538Z,49.67
2018-11-04T08:53:34.071Z,52.97
2018-11-04T08:56:03.185Z,42.10
2018-11-04T08:58:31.402Z,50.07
2018-11-04T09:00:59.656Z,54.50
2018-11-04T09:03:28.296Z,43.90
2018-11-04T09:05:56.737Z,50.87
2018-11-04T09:08:25.756Z,51.30
2018-11-04T09:10:54.015Z,49.30
2018-11-04T09:13:23.005Z,51.97
2018-11-04T09:15:51.216Z,51.00
2018-11-04T09:18:28.131Z,48.97
2018-11-04T09:20:58.314Z,41.93
2018-11-04T09:23:26.546Z,40.53
2018-11-04T09:25:54.774Z,35.60
2018-11-04T09:28:22.886Z,43.80
2018-11-04T09:30:51.185Z,42.73
2018-11-04T09:33:19.532Z,46.00
2018-11-04T09:35:49.626Z,42.83
2018-11-04T09:38:17.672Z,43.10
2018-11-04T09:40:47.966Z,44.60
2018-11-04T09:43:16.566Z,39.10
2018-11-04T09:45:44.881Z,43.23
2018-11-04T09:48:13.234Z,43.57
2018-11-04T09:50:41.717Z,41.03
2018-11-04T09:53:10.192Z,44.73
2018-11-04T09:55:41.315Z,46.70
2018-11-04T09:58:09.613Z,38.73
2018-11-04T10:00:49.142Z,37.47
2018-11-04T10:03:17.429Z,41.23
2018-11-04T10:05:46.343Z,39.73
2018-11-04T10:08:14.744Z,45.07
2018-11-04T10:10:43.050Z,39.10
2018-11-04T10:13:11.677Z,45.13
2018-11-04T10:15:40.413Z,49.30
2018-11-04T10:18:09.153Z,40.90
2018-11-04T10:20:38.188Z,39.80
2018-11-04T10:23:06.353Z,40.47
2018-11-04T10:25:34.921Z,41.87
2018-11-04T10:28:03.331Z,44.00
2018-11-04T10:30:35.512Z,45.20
2018-11-04T10:33:03.780Z,36.13
2018-11-04T10:35:32.194Z,46.17
2018-11-04T10:38:00.711Z,42.47
2018-11-04T10:40:34.771Z,45.03
2018-11-04T10:43:04.746Z,40.53
2018-11-04T10:45:33.564Z,40.20
2018-11-04T10:48:02.368Z,48.10
2018-11-04T10:50:31.784Z,51.20
2018-11-04T10:53:01.104Z,51.17
2018-11-04T10:55:29.492Z,51.73
2018-11-04T11:00:38.084Z,49.23
2018-11-04T11:03:06.420Z,54.33
2018-11-04T11:05:35.262Z,45.43
2018-11-04T11:08:04.354Z,46.30
2018-11-04T11:10:32.579Z,47.77
2018-11-04T11:13:02.685Z,48.17
2018-11-04T11:15:32.131Z,47.63
2018-11-04T11:18:02.811Z,48.70
2018-11-04T11:20:36.307Z,52.43
2018-11-04T11:23:09.401Z,48.63
2018-11-04T11:25:38.442Z,46.07
2018-11-04T11:28:13.401Z,44.80
2018-11-04T11:30:47.307Z,49.43
2018-11-04T11:33:15.744Z,44.17
2018-11-04T11:35:46.194Z,38.50
2018-11-04T11:38:14.592Z,41.33
2018-11-04T11:40:50.111Z,42.50
2018-11-04T11:43:18.315Z,44.23
2018-11-04T11:45:52.224Z,40.33
2018-11-04T11:48:26.637Z,38.13
2018-11-04T11:53:28.133Z,38.67
2018-11-04T11:55:59.230Z,40.77
2018-11-04T11:58:39.079Z,40.10
2018-11-04T12:01:09.298Z,35.07
2018-11-04T12:06:19.010Z,42.73
2018-11-04T12:08:47.438Z,38.07
2018-11-04T12:11:21.220Z,39.63
2018-11-04T12:13:49.412Z,39.07
2018-11-04T12:16:22.387Z,45.00
2018-11-04T12:21:27.715Z,44.60
2018-11-04T12:23:56.229Z,36.70
2018-11-04T12:26:24.640Z,40.20
2018-11-04T12:28:53.085Z,35.80
2018-11-04T12:31:21.525Z,43.80
2018-11-04T12:36:27.774Z,44.73
2018-11-04T12:41:34.255Z,40.40
2018-11-04T12:46:41.192Z,43.07
2018-11-04T12:49:09.822Z,31.83
2018-11-04T12:51:39.447Z,38.40
2018-11-04T12:57:01.397Z,42.40
2018-11-04T12:59:30.171Z,33.97
2018-11-04T13:02:00.392Z,37.50
2018-11-04T13:04:35.390Z,33.53
2018-11-04T13:07:11.712Z,42.90
2018-11-04T13:12:15.690Z,31.33
2018-11-04T13:14:49.212Z,33.60
2018-11-04T13:17:23.699Z,30.80
2018-11-04T13:19:56.330Z,37.53
2018-11-04T13:27:40.168Z,41.80
2018-11-04T13:33:06.795Z,34.20
2018-11-04T13:38:16.134Z,33.97
2018-11-04T13:43:29.318Z,26.97
2018-11-04T13:45:57.898Z,36.10
2018-11-04T13:48:26.694Z,38.40
2018-11-04T13:51:05.831Z,38.13
2018-11-04T13:53:43.033Z,37.50
2018-11-04T14:29:24.299Z,34.50
2018-11-04T14:34:39.843Z,32.10
2018-11-04T14:39:42.204Z,32.03
2018-11-04T14:42:12.098Z,38.10
2018-11-04T14:47:23.372Z,25.67
2018-11-04T14:49:53.536Z,29.13
2018-11-04T14:52:24.946Z,37.50
2018-11-04T14:54:54.494Z,29.50
2018-11-04T14:57:25.258Z,32.90
2018-11-04T15:02:57.647Z,37.97
2018-11-04T15:05:38.250Z,28.50
2018-11-04T15:08:10.448Z,31.63
2018-11-04T15:10:45.502Z,34.80
2018-11-04T15:13:19.993Z,30.33
2018-11-04T15:15:57.586Z,35.00
2018-11-04T15:18:35.218Z,33.50
2018-11-04T15:21:08.350Z,36.40
2018-11-04T15:23:42.845Z,35.60
2018-11-04T15:26:16.397Z,32.70
2018-11-04T15:37:14.033Z,30.40
2018-11-04T15:39:42.908Z,36.63
2018-11-04T15:42:13.465Z,41.03
2018-11-04T15:44:47.527Z,33.97
2018-11-04T15:47:16.509Z,35.70
2018-11-04T15:49:46.991Z,34.50
2018-11-04T15:52:30.946Z,33.37
2018-11-04T15:54:59.636Z,29.23
2018-11-04T16:02:55.384Z,40.63
2018-11-04T16:08:01.902Z,30.63
2018-11-04T16:10:30.601Z,33.03
2018-11-04T16:13:00.577Z,30.63
2018-11-04T16:15:29.484Z,32.90
2018-11-04T16:17:58.695Z,35.13
2018-11-04T16:20:29.043Z,35.47
2018-11-04T16:23:01.255Z,33.53
2018-11-04T16:25:32.037Z,32.40
2018-11-04T16:28:01.898Z,34.57
2018-11-04T16:30:30.310Z,48.83
2018-11-04T16:33:04.916Z,34.40
2018-11-04T16:35:43.535Z,37.33
2018-11-04T16:41:01.660Z,39.00
2018-11-04T16:43:38.633Z,29.53
2018-11-04T16:46:10.724Z,35.73
2018-11-04T16:51:26.626Z,43.80
2018-11-04T16:54:04.752Z,40.77
2018-11-04T16:59:21.657Z,30.37
2018-11-04T17:01:57.589Z,34.17
2018-11-04T17:04:26.323Z,33.67
2018-11-04T17:06:55.408Z,37.47
2018-11-04T17:12:12.577Z,34.50
2018-11-04T17:23:06.574Z,34.73
2018-11-04T17:28:17.347Z,31.83
2018-11-04T17:36:21.502Z,31.93
2018-11-04T17:38:50.657Z,28.70
2018-11-04T17:41:23.762Z,27.47
2018-11-04T17:49:11.321Z,33.33
2018-11-04T17:54:31.556Z,28.93
2018-11-04T17:57:08.776Z,29.43
2018-11-04T18:03:20.265Z,33.13
2018-11-04T18:05:49.929Z,31.20
2018-11-04T18:08:27.846Z,35.60
2018-11-04T18:11:05.813Z,42.47
2018-11-04T18:13:40.958Z,27.77
2018-11-04T18:18:47.573Z,31.07
2018-11-04T18:21:21.406Z,31.43
2018-11-04T18:26:36.391Z,28.10
2018-11-04T18:29:05.371Z,34.60
2018-11-04T18:31:34.803Z,30.67
2018-11-04T18:34:10.912Z,31.37
2018-11-04T18:36:41.105Z,33.57
2018-11-04T18:39:10.558Z,27.00
2018-11-04T18:41:39.651Z,31.20
2018-11-04T18:44:08.961Z,32.20
2018-11-04T18:49:18.790Z,28.17
2018-11-04T18:51:48.204Z,31.40
2018-11-04T18:54:17.936Z,34.50
2018-11-04T18:56:47.793Z,27.50
2018-11-04T18:59:18.533Z,28.17
2018-11-04T19:01:52.180Z,29.03
2018-11-04T19:04:20.945Z,33.83
2018-11-04T19:09:23.761Z,29.63
2018-11-04T19:11:56.888Z,28.10
2018-11-04T19:17:02.555Z,37.43
2018-11-04T19:19:30.926Z,41.33
2018-11-04T19:22:00.051Z,37.80
2018-11-04T19:24:28.578Z,39.30
2018-11-04T19:26:58.740Z,37.63
2018-11-04T19:29:27.171Z,36.60
2018-11-04T19:31:55.754Z,38.30
2018-11-04T19:34:24.206Z,36.87
2018-11-04T19:36:53.151Z,32.40
2018-11-04T19:39:21.370Z,35.83
2018-11-04T19:41:50.607Z,36.13
2018-11-04T19:44:18.876Z,31.50
2018-11-04T19:46:49.022Z,37.63
2018-11-04T19:49:17.758Z,36.97
2018-11-04T19:51:50.239Z,39.80
2018-11-04T19:54:18.867Z,31.87
2018-11-04T19:56:47.220Z,32.70
2018-11-04T20:02:14.848Z,29.67
2018-11-04T20:04:43.331Z,32.37
2018-11-04T20:07:11.885Z,36.23
2018-11-04T20:09:40.713Z,35.20
2018-11-04T20:12:16.331Z,34.97
2018-11-04T20:15:15.494Z,31.93
2018-11-04T20:17:44.974Z,34.03
2018-11-04T20:20:16.141Z,31.70
2018-11-04T20:22:55.189Z,39.93
2018-11-04T20:25:29.688Z,31.17
2018-11-04T20:27:58.351Z,33.20
2018-11-04T20:30:26.771Z,42.57
2018-11-04T20:35:42.043Z,42.50
2018-11-04T20:38:10.542Z,30.97
2018-11-04T20:40:44.294Z,31.80
2018-11-04T20:43:12.569Z,32.07
2018-11-04T20:45:42.108Z,28.67
2018-11-04T20:51:02.909Z,33.30
2018-11-04T20:53:31.131Z,34.90
2018-11-04T20:56:04.610Z,43.73
2018-11-04T20:58:33.675Z,40.60
2018-11-04T21:01:02.104Z,36.37
2018-11-04T21:03:30.617Z,32.13
2018-11-04T21:05:59.622Z,39.07
2018-11-04T21:08:29.812Z,36.03
2018-11-04T21:10:58.412Z,38.63
2018-11-04T21:13:28.078Z,32.80
2018-11-04T21:15:56.556Z,36.27
2018-11-04T21:18:25.105Z,32.53
2018-11-04T21:20:58.796Z,36.47
2018-11-04T21:23:31.102Z,37.03
2018-11-04T21:26:05.470Z,31.27
2018-11-04T21:28:39.979Z,38.73
2018-11-04T21:31:08.342Z,36.13
2018-11-04T21:33:38.823Z,34.03
2018-11-04T21:36:08.034Z,38.37
2018-11-04T21:38:39.638Z,31.30
2018-11-04T21:41:07.903Z,34.53
2018-11-04T21:43:37.564Z,33.80
2018-11-04T21:46:06.156Z,32.53
2018-11-04T21:48:34.743Z,35.33
2018-11-04T21:51:03.238Z,37.90
2018-11-04T21:53:31.394Z,30.83
2018-11-04T21:56:00.398Z,29.43
2018-11-04T21:58:29.981Z,31.30
2018-11-04T22:00:58.337Z,33.20
2018-11-04T22:03:26.689Z,36.63
2018-11-04T22:05:54.948Z,33.53
2018-11-04T22:08:23.262Z,34.00
2018-11-04T22:10:54.216Z,33.57
2018-11-04T22:13:22.397Z,37.10
2018-11-04T22:15:50.871Z,31.30
2018-11-04T22:18:49.582Z,38.00
2018-11-04T22:21:18.150Z,29.47
2018-11-04T22:23:46.981Z,36.70
2018-11-04T22:26:15.156Z,35.13
2018-11-04T22:28:43.514Z,28.43
2018-11-04T22:33:44.269Z,31.13
2018-11-04T22:36:12.904Z,37.20
2018-11-04T22:38:41.658Z,34.23
2018-11-04T22:41:09.989Z,31.27
2018-11-04T22:43:38.408Z,26.53
2018-11-04T22:46:06.720Z,35.77
2018-11-04T22:48:35.056Z,30.30
2018-11-04T22:51:03.652Z,45.97
2018-11-04T22:53:32.405Z,40.70
2018-11-04T22:56:00.733Z,32.53
2018-11-04T22:58:29.778Z,38.37
2018-11-04T23:00:59.320Z,30.87
2018-11-04T23:03:32.222Z,32.97
2018-11-04T23:06:06.287Z,30.47
2018-11-04T23:08:35.019Z,31.83
2018-11-04T23:11:04.018Z,32.80
2018-11-04T23:13:32.430Z,28.60
2018-11-04T23:16:00.588Z,27.43
2018-11-04T23:18:29.279Z,31.23
2018-11-04T23:20:57.448Z,28.07
2018-11-04T23:23:26.019Z,28.80
2018-11-04T23:25:54.381Z,26.40
2018-11-04T23:28:22.525Z,29.50
2018-11-04T23:30:50.677Z,28.47
2018-11-04T23:33:18.772Z,28.30
2018-11-04T23:35:48.227Z,28.53
2018-11-04T23:38:16.517Z,26.43
2018-11-04T23:40:44.789Z,30.10
2018-11-04T23:43:13.145Z,25.23
2018-11-04T23:45:41.795Z,24.27
2018-11-04T23:48:10.193Z,28.37
2018-11-04T23:50:38.375Z,29.17
2018-11-04T23:53:07.187Z,29.73
2018-11-04T23:55:35.489Z,30.43
2018-11-04T23:58:04.286Z,30.10
